Time;durP1;ratioP1;P1;durP2;ratioP2;P2;SDS_P1;SDS_P2;PMS_P1;PMS_P2;Temp;Humidity;BMP_temperature;BMP_pressure;BME280_temperature;BME280_humidity;BME280_pressure;Samples;Min_cycle;Max_cycle;Signal;HPM_P1;HPM_P2
2023/04/01 00:00:18;;;;;;;7.55;5.70;;;10.70;99.90;;;;;;5043881;28;20057;-69
2023/04/01 00:02:44;;;;;;;8.45;5.53;;;10.70;99.90;;;;;;5055871;28;20053;-69
2023/04/01 00:05:10;;;;;;;6.40;5.38;;;10.70;99.90;;;;;;5059010;28;20755;-69
2023/04/01 00:07:40;;;;;;;7.80;5.90;;;10.70;99.90;;;;;;5068483;28;20059;-70
2023/04/01 00:10:08;;;;;;;6.22;5.28;;;10.70;99.90;;;;;;5061886;28;20040;-69
2023/04/01 00:12:35;;;;;;;9.68;5.38;;;10.70;99.90;;;;;;5066265;28;20044;-70
2023/04/01 00:15:02;;;;;;;8.07;4.90;;;10.70;99.90;;;;;;5058465;28;20449;-69
2023/04/01 00:17:28;;;;;;;8.07;5.65;;;10.70;99.90;;;;;;5058564;28;20463;-68
2023/04/01 00:19:57;;;;;;;7.50;5.00;;;10.70;99.90;;;;;;5066806;28;20036;-71
2023/04/01 00:22:24;;;;;;;8.88;5.88;;;10.70;99.90;;;;;;5061960;28;20056;-68
2023/04/01 00:24:50;;;;;;;8.18;5.35;;;10.60;99.90;;;;;;5065840;28;20033;-69
2023/04/01 00:27:16;;;;;;;8.23;4.85;;;10.60;99.90;;;;;;5053528;28;20041;-69
2023/04/01 00:29:46;;;;;;;7.82;5.03;;;10.60;99.90;;;;;;5054244;28;20049;-72
2023/04/01 00:32:12;;;;;;;6.55;4.65;;;10.70;99.90;;;;;;5053533;28;20028;-68
2023/04/01 00:34:39;;;;;;;9.00;5.22;;;10.60;99.90;;;;;;5059114;28;20055;-69
2023/04/01 00:37:05;;;;;;;5.53;4.55;;;10.70;99.90;;;;;;5056431;28;20041;-71
2023/04/01 00:39:32;;;;;;;8.43;4.93;;;10.60;99.90;;;;;;5050274;28;20435;-68
2023/04/01 00:41:59;;;;;;;6.53;4.93;;;10.60;99.90;;;;;;5064974;28;20170;-70
2023/04/01 00:44:31;;;;;;;7.28;4.68;;;10.60;99.90;;;;;;5065203;28;20036;-68
2023/04/01 00:46:57;;;;;;;8.50;4.82;;;10.60;99.90;;;;;;5057093;28;20052;-69
2023/04/01 00:49:27;;;;;;;8.18;5.30;;;10.60;99.90;;;;;;5065026;28;20045;-68
2023/04/01 00:51:56;;;;;;;7.05;4.88;;;10.60;99.90;;;;;;5058216;28;20072;-70
2023/04/01 00:54:24;;;;;;;6.30;4.30;;;10.60;99.90;;;;;;5035379;28;20583;-69
2023/04/01 00:56:57;;;;;;;7.47;4.93;;;10.60;99.90;;;;;;5058415;28;20507;-69
2023/04/01 00:59:27;;;;;;;6.03;4.40;;;10.60;99.90;;;;;;5070671;28;20040;-69
2023/04/01 01:01:53;;;;;;;5.55;4.20;;;10.60;99.90;;;;;;5064480;28;20519;-69
2023/04/01 01:04:33;;;;;;;7.78;4.63;;;10.60;99.90;;;;;;5068397;28;20044;-70
2023/04/01 01:07:07;;;;;;;6.75;4.72;;;10.60;99.90;;;;;;5053313;28;20049;-70
2023/04/01 01:09:47;;;;;;;7.00;4.32;;;10.60;99.90;;;;;;5036728;28;20182;-70
2023/04/01 01:12:18;;;;;;;6.10;4.35;;;10.60;99.90;;;;;;5051969;28;20492;-69
2023/04/01 01:14:47;;;;;;;5.20;3.80;;;10.60;99.90;;;;;;5064131;28;20045;-69
2023/04/01 01:17:38;;;;;;;7.35;4.30;;;10.60;99.90;;;;;;5040613;28;20049;-68
2023/04/01 01:20:28;;;;;;;6.63;4.65;;;10.60;99.90;;;;;;5034467;28;20049;-68
2023/04/01 01:23:24;;;;;;;6.68;4.50;;;10.60;99.90;;;;;;5063058;28;20125;-69
2023/04/01 01:26:24;;;;;;;7.53;5.10;;;10.60;99.90;;;;;;5044934;28;20512;-68
2023/04/01 01:29:14;;;;;;;6.28;4.90;;;10.60;99.90;;;;;;5036684;28;20036;-69
2023/04/01 01:32:04;;;;;;;8.38;5.38;;;10.60;99.90;;;;;;5056150;28;20836;-69
2023/04/01 01:34:46;;;;;;;8.00;4.93;;;10.60;99.90;;;;;;5052273;28;20423;-69
2023/04/01 01:37:18;;;;;;;7.35;6.18;;;10.60;99.90;;;;;;5049525;28;20484;-70
2023/04/01 01:39:50;;;;;;;9.20;6.43;;;10.60;99.90;;;;;;5060742;28;20036;-68
2023/04/01 01:42:18;;;;;;;7.82;6.00;;;10.50;99.90;;;;;;5041960;28;20083;-69
2023/04/01 01:44:47;;;;;;;8.60;6.70;;;10.50;99.90;;;;;;5051501;28;20598;-70
2023/04/01 01:47:14;;;;;;;9.10;6.63;;;10.50;99.90;;;;;;5053414;28;20083;-69
2023/04/01 01:49:42;;;;;;;7.97;6.55;;;10.50;99.90;;;;;;5065042;28;20041;-70
2023/04/01 01:52:07;;;;;;;9.02;6.53;;;10.50;99.90;;;;;;5043540;28;20045;-68
2023/04/01 01:54:33;;;;;;;9.05;6.38;;;10.50;99.90;;;;;;5064545;28;20041;-70
2023/04/01 01:57:10;;;;;;;10.38;6.35;;;10.50;99.90;;;;;;5039739;28;20425;-69
2023/04/01 01:59:38;;;;;;;8.68;6.57;;;10.50;99.90;;;;;;5055229;28;20036;-68
2023/04/01 02:02:07;;;;;;;9.80;6.88;;;10.50;99.90;;;;;;5064917;28;20048;-69
2023/04/01 02:04:39;;;;;;;8.13;6.60;;;10.50;99.90;;;;;;5058042;28;20078;-69
2023/04/01 02:07:12;;;;;;;8.02;6.60;;;10.50;99.90;;;;;;5057941;28;20049;-69
2023/04/01 02:09:38;;;;;;;9.77;7.43;;;10.50;99.90;;;;;;5064301;28;20503;-68
2023/04/01 02:12:07;;;;;;;8.65;6.85;;;10.50;99.90;;;;;;5068757;28;20044;-69
2023/04/01 02:14:49;;;;;;;8.55;6.80;;;10.50;99.90;;;;;;5070695;28;20044;-71
2023/04/01 02:17:24;;;;;;;8.13;6.57;;;10.50;99.90;;;;;;5058844;28;20426;-67
2023/04/01 02:20:10;;;;;;;11.07;7.20;;;10.50;99.90;;;;;;5060149;28;20064;-73
2023/04/01 02:22:41;;;;;;;8.90;6.55;;;10.50;99.90;;;;;;5055157;28;20123;-69
2023/04/01 02:25:18;;;;;;;9.05;7.05;;;10.50;99.90;;;;;;5051516;28;20048;-70
2023/04/01 02:27:45;;;;;;;8.13;6.50;;;10.50;99.90;;;;;;5058537;28;20044;-69
2023/04/01 02:30:12;;;;;;;8.63;6.32;;;10.40;99.90;;;;;;5044801;28;20045;-70
2023/04/01 02:32:39;;;;;;;7.32;5.97;;;10.40;99.90;;;;;;5055515;28;20480;-70
2023/04/01 02:35:11;;;;;;;9.55;6.38;;;10.40;99.90;;;;;;5054073;28;20106;-70
2023/04/01 02:37:38;;;;;;;7.60;6.10;;;10.40;99.90;;;;;;5061397;28;20137;-71
2023/04/01 02:40:07;;;;;;;9.25;6.35;;;10.40;99.90;;;;;;5059582;28;20037;-69
2023/04/01 02:42:34;;;;;;;8.15;6.25;;;10.40;99.90;;;;;;5062834;28;20060;-68
2023/04/01 02:45:00;;;;;;;8.45;6.95;;;10.40;99.90;;;;;;5051285;28;20037;-68
2023/04/01 02:47:25;;;;;;;7.28;6.07;;;10.40;99.90;;;;;;5058226;28;20053;-68
2023/04/01 02:49:57;;;;;;;8.32;6.22;;;10.40;99.90;;;;;;5061556;28;20462;-69
2023/04/01 02:52:23;;;;;;;8.77;6.65;;;10.40;99.90;;;;;;5061450;28;20068;-69
2023/04/01 02:54:49;;;;;;;9.18;6.10;;;10.40;99.90;;;;;;5064341;28;20032;-68
2023/04/01 02:57:15;;;;;;;6.78;5.72;;;10.40;99.90;;;;;;5040059;28;20045;-69
2023/04/01 02:59:40;;;;;;;7.68;5.72;;;10.40;99.90;;;;;;5051515;28;20049;-68
2023/04/01 03:02:06;;;;;;;8.13;6.13;;;10.40;99.90;;;;;;5034931;28;20057;-68
2023/04/01 03:04:32;;;;;;;9.88;5.97;;;10.40;99.90;;;;;;5062247;28;20450;-69
2023/04/01 03:06:58;;;;;;;10.15;6.35;;;10.40;99.90;;;;;;5061051;28;20099;-70
2023/04/01 03:09:24;;;;;;;8.52;6.25;;;10.40;99.90;;;;;;5056656;28;20041;-68
2023/04/01 03:11:49;;;;;;;8.80;6.05;;;10.40;99.90;;;;;;5065668;28;20055;-69
2023/04/01 03:14:15;;;;;;;7.72;6.05;;;10.40;99.90;;;;;;5055065;28;20045;-69
2023/04/01 03:16:41;;;;;;;8.55;6.28;;;10.40;99.90;;;;;;5058094;28;20052;-69
2023/04/01 03:19:06;;;;;;;8.15;6.13;;;10.40;99.90;;;;;;5059355;28;20048;-70
2023/04/01 03:21:32;;;;;;;9.30;5.85;;;10.40;99.90;;;;;;5063169;28;20036;-70
2023/04/01 03:23:58;;;;;;;9.38;6.88;;;10.40;99.90;;;;;;5061794;28;20498;-70
2023/04/01 03:26:26;;;;;;;9.15;6.05;;;10.40;99.90;;;;;;5041812;28;20518;-68
2023/04/01 03:28:52;;;;;;;8.13;5.80;;;10.40;99.90;;;;;;5063968;28;20162;-67
2023/04/01 03:31:18;;;;;;;7.28;5.72;;;10.40;99.90;;;;;;5070410;28;20412;-69
2023/04/01 03:33:44;;;;;;;8.07;5.80;;;10.40;99.90;;;;;;5066086;28;20041;-69
2023/04/01 03:36:12;;;;;;;8.70;5.75;;;10.40;99.90;;;;;;5054703;28;20072;-69
2023/04/01 03:38:38;;;;;;;8.55;6.00;;;10.40;99.90;;;;;;5060870;28;20134;-68
2023/04/01 03:41:04;;;;;;;6.75;5.63;;;10.30;99.90;;;;;;5067226;28;20502;-69
2023/04/01 03:43:30;;;;;;;7.82;5.78;;;10.40;99.90;;;;;;5059410;28;20045;-70
2023/04/01 03:45:57;;;;;;;8.35;5.93;;;10.40;99.90;;;;;;5053899;28;20484;-69
2023/04/01 03:48:23;;;;;;;6.97;5.40;;;10.40;99.90;;;;;;5064537;28;20037;-68
2023/04/01 03:50:49;;;;;;;6.22;5.47;;;10.40;99.90;;;;;;5067122;28;20036;-68
2023/04/01 03:53:15;;;;;;;7.43;5.88;;;10.40;99.90;;;;;;5065216;28;20430;-70
2023/04/01 03:55:41;;;;;;;6.13;5.35;;;10.40;99.90;;;;;;5056412;28;20052;-69
2023/04/01 03:58:07;;;;;;;6.65;5.35;;;10.40;99.90;;;;;;5064674;28;20139;-69
2023/04/01 04:00:33;;;;;;;5.35;4.82;;;10.40;99.90;;;;;;5054454;28;20417;-71
2023/04/01 04:02:59;;;;;;;7.35;4.78;;;10.40;99.90;;;;;;5036114;28;20075;-69
2023/04/01 04:05:26;;;;;;;6.30;4.95;;;10.40;99.90;;;;;;5061444;28;20044;-69
2023/04/01 04:07:53;;;;;;;6.10;5.13;;;10.40;99.90;;;;;;5062408;28;20135;-70
2023/04/01 04:10:19;;;;;;;6.88;5.00;;;10.40;99.90;;;;;;5053872;28;20041;-68
2023/04/01 04:12:45;;;;;;;5.60;4.63;;;10.40;99.90;;;;;;5064232;28;20094;-69
2023/04/01 04:15:12;;;;;;;7.45;5.82;;;10.40;99.90;;;;;;5070051;28;20127;-68
2023/04/01 04:17:38;;;;;;;6.72;5.22;;;10.40;99.90;;;;;;5059866;28;20495;-69
2023/04/01 04:20:04;;;;;;;7.38;6.25;;;10.40;99.90;;;;;;5070579;28;20047;-68
2023/04/01 04:22:30;;;;;;;7.37;6.00;;;10.40;99.90;;;;;;5056946;28;20041;-68
2023/04/01 04:24:55;;;;;;;8.63;6.90;;;10.40;99.90;;;;;;5070557;28;20120;-68
2023/04/01 04:27:21;;;;;;;8.50;7.20;;;10.40;99.90;;;;;;5059590;28;20470;-70
2023/04/01 04:29:47;;;;;;;8.32;6.95;;;10.30;99.90;;;;;;5061620;28;20041;-70
2023/04/01 04:32:12;;;;;;;8.40;7.50;;;10.30;99.90;;;;;;5037687;28;20445;-70
2023/04/01 04:34:38;;;;;;;8.38;7.57;;;10.40;99.90;;;;;;5062370;28;20492;-69
2023/04/01 04:37:04;;;;;;;9.63;8.20;;;10.40;99.90;;;;;;5058198;28;20040;-69
2023/04/01 04:39:30;;;;;;;10.32;9.20;;;10.40;99.90;;;;;;5050375;28;20045;-69
2023/04/01 04:41:55;;;;;;;10.52;8.77;;;10.40;99.90;;;;;;5049096;28;20040;-69
2023/04/01 04:44:21;;;;;;;9.20;8.10;;;10.30;99.90;;;;;;5064780;28;20039;-68
2023/04/01 04:46:47;;;;;;;9.43;8.50;;;10.30;99.90;;;;;;5064803;28;20045;-69
2023/04/01 04:49:13;;;;;;;10.75;9.57;;;10.40;99.90;;;;;;5064262;28;20041;-69
2023/04/01 04:51:39;;;;;;;10.48;9.05;;;10.40;99.90;;;;;;5053917;28;20051;-68
2023/04/01 04:54:05;;;;;;;11.50;10.30;;;10.30;99.90;;;;;;5058525;28;20376;-68
2023/04/01 04:56:32;;;;;;;11.13;10.02;;;10.30;99.90;;;;;;5067587;28;20591;-68
2023/04/01 04:58:58;;;;;;;11.65;10.43;;;10.30;99.90;;;;;;5054638;28;20043;-69
2023/04/01 05:01:24;;;;;;;11.57;10.48;;;10.30;99.90;;;;;;5055715;28;20048;-69
2023/04/01 05:03:50;;;;;;;12.70;11.40;;;10.30;99.90;;;;;;5060386;28;20048;-70
2023/04/01 05:06:17;;;;;;;12.43;11.15;;;10.30;99.90;;;;;;5064672;28;20040;-69
2023/04/01 05:08:44;;;;;;;13.35;11.95;;;10.30;99.90;;;;;;5061967;28;20040;-71
2023/04/01 05:11:13;;;;;;;14.35;12.30;;;10.30;99.90;;;;;;5063684;28;20045;-70
2023/04/01 05:13:40;;;;;;;12.88;11.57;;;10.30;99.90;;;;;;5062593;28;20052;-69
2023/04/01 05:16:11;;;;;;;14.43;12.93;;;10.30;99.90;;;;;;5046878;28;20041;-71
2023/04/01 05:18:37;;;;;;;13.80;12.50;;;10.30;99.90;;;;;;5047135;28;20106;-70
2023/04/01 05:21:03;;;;;;;15.18;13.60;;;10.30;99.90;;;;;;5057598;28;20044;-70
2023/04/01 05:23:31;;;;;;;14.68;13.27;;;10.30;99.90;;;;;;5065760;28;20049;-70
2023/04/01 05:25:57;;;;;;;15.90;14.30;;;10.30;99.90;;;;;;5057878;28;20040;-69
2023/04/01 05:28:23;;;;;;;16.67;14.60;;;10.30;99.90;;;;;;5044946;28;20591;-70
2023/04/01 05:30:48;;;;;;;16.92;15.27;;;10.40;99.90;;;;;;5061593;28;20163;-71
2023/04/01 05:33:14;;;;;;;16.77;15.07;;;10.40;99.90;;;;;;5036531;28;20083;-71
2023/04/01 05:35:41;;;;;;;17.00;15.30;;;10.40;99.90;;;;;;5063594;28;20048;-69
2023/04/01 05:38:07;;;;;;;16.73;15.02;;;10.40;99.90;;;;;;5067686;28;20387;-69
2023/04/01 05:40:33;;;;;;;18.08;16.30;;;10.40;99.90;;;;;;5042362;28;20750;-70
2023/04/01 05:43:00;;;;;;;17.65;15.77;;;10.40;99.90;;;;;;5054082;28;20533;-71
2023/04/01 05:45:26;;;;;;;18.10;16.30;;;10.40;99.90;;;;;;5067838;28;20091;-71
2023/04/01 05:47:52;;;;;;;18.13;16.33;;;10.40;99.90;;;;;;5059257;28;20068;-71
2023/04/01 05:50:18;;;;;;;17.08;15.38;;;10.40;99.90;;;;;;5063479;28;20083;-71
2023/04/01 05:52:44;;;;;;;17.58;15.77;;;10.40;99.90;;;;;;5044502;28;20058;-69
2023/04/01 05:55:10;;;;;;;16.90;15.10;;;10.40;99.90;;;;;;5067571;28;20029;-71
2023/04/01 05:57:36;;;;;;;16.80;14.77;;;10.40;99.90;;;;;;5058413;28;20094;-70
2023/04/01 06:00:02;;;;;;;17.70;15.73;;;10.40;99.90;;;;;;5038551;28;20499;-69
2023/04/01 06:02:28;;;;;;;18.17;15.27;;;10.40;99.90;;;;;;5062481;28;20059;-68
2023/04/01 06:05:17;;;;;;;14.35;12.85;;;10.40;99.90;;;;;;5038469;28;20472;-69
2023/04/01 06:07:43;;;;;;;12.18;10.88;;;10.40;99.90;;;;;;5058108;28;20049;-70
2023/04/01 06:10:16;;;;;;;13.93;11.80;;;10.40;99.90;;;;;;5053079;28;20553;-69
2023/04/01 06:12:54;;;;;;;15.25;13.75;;;10.40;99.90;;;;;;5053809;28;20041;-68
2023/04/01 06:15:29;;;;;;;15.98;14.35;;;10.40;99.90;;;;;;5063079;28;20144;-69
2023/04/01 06:18:22;;;;;;;18.88;16.98;;;10.40;99.90;;;;;;5043543;28;20045;-68
2023/04/01 06:20:56;;;;;;;21.60;17.15;;;10.40;99.90;;;;;;5055752;28;20593;-69
2023/04/01 06:23:37;;;;;;;19.02;16.88;;;10.40;99.90;;;;;;5061996;28;20491;-70
2023/04/01 06:26:24;;;;;;;18.50;16.40;;;10.40;99.90;;;;;;5069813;28;20051;-68
2023/04/01 06:29:02;;;;;;;18.63;16.73;;;10.50;99.90;;;;;;5065894;28;20047;-69
2023/04/01 06:31:49;;;;;;;17.98;16.25;;;10.40;99.90;;;;;;5068528;28;20169;-68
2023/04/01 06:34:40;;;;;;;18.33;16.42;;;10.50;99.90;;;;;;5062352;28;20049;-68
2023/04/01 06:37:50;;;;;;;18.48;16.55;;;10.40;99.90;;;;;;5043897;28;20674;-69
2023/04/01 06:40:46;;;;;;;18.40;16.50;;;10.50;99.90;;;;;;5066203;28;20086;-69
2023/04/01 06:43:24;;;;;;;19.77;17.27;;;10.50;99.90;;;;;;5062900;28;20083;-70
2023/04/01 06:46:13;;;;;;;21.38;18.55;;;10.50;99.90;;;;;;5063333;28;20483;-68
2023/04/01 06:48:43;;;;;;;21.75;18.08;;;10.50;99.90;;;;;;5065876;28;20101;-69
2023/04/01 06:51:15;;;;;;;19.73;16.98;;;10.60;99.90;;;;;;5062020;28;20047;-70
2023/04/01 06:53:58;;;;;;;22.13;17.10;;;10.50;99.90;;;;;;5059200;28;20515;-68
2023/04/01 06:56:28;;;;;;;19.08;17.08;;;10.60;99.90;;;;;;5062032;28;20051;-68
2023/04/01 06:59:12;;;;;;;22.88;18.40;;;10.60;99.90;;;;;;5069951;28;20079;-69
2023/04/01 07:01:42;;;;;;;20.30;16.48;;;10.60;99.90;;;;;;5072432;28;20086;-68
2023/04/01 07:04:23;;;;;;;19.80;17.00;;;10.60;99.90;;;;;;5060772;28;20037;-69
2023/04/01 07:06:57;;;;;;;19.63;16.38;;;10.60;99.90;;;;;;5065700;28;20107;-68
2023/04/01 07:09:28;;;;;;;17.95;15.85;;;10.60;99.90;;;;;;5062285;28;20552;-68
2023/04/01 07:12:00;;;;;;;18.45;16.25;;;10.60;99.90;;;;;;5042169;28;20051;-68
2023/04/01 07:14:31;;;;;;;19.48;16.48;;;10.60;99.90;;;;;;5058968;28;20083;-69
2023/04/01 07:17:33;;;;;;;22.15;17.95;;;10.60;99.90;;;;;;5051582;28;20056;-69
2023/04/01 07:20:01;;;;;;;25.30;17.90;;;10.60;99.90;;;;;;5009057;28;20041;-69
2023/04/01 07:22:31;;;;;;;24.10;19.33;;;10.60;99.90;;;;;;5067237;28;20049;-70
2023/04/01 07:25:01;;;;;;;23.23;18.85;;;10.60;99.90;;;;;;5070931;28;20044;-69
2023/04/01 07:27:27;;;;;;;24.17;19.63;;;10.60;99.90;;;;;;5048805;28;20045;-68
2023/04/01 07:29:56;;;;;;;25.25;19.45;;;10.60;99.90;;;;;;5060530;28;20046;-70
2023/04/01 07:32:42;;;;;;;26.98;19.85;;;10.60;99.90;;;;;;5058349;28;20748;-69
2023/04/01 07:35:32;;;;;;;28.65;20.88;;;10.70;99.90;;;;;;5057488;28;20041;-70
2023/04/01 07:38:25;;;;;;;25.88;19.05;;;10.70;99.90;;;;;;5066727;28;20049;-68
2023/04/01 07:41:20;;;;;;;23.05;18.02;;;10.70;99.90;;;;;;5073289;28;20102;-70
2023/04/01 07:44:06;;;;;;;24.25;18.65;;;10.70;99.90;;;;;;5061657;28;20586;-69
2023/04/01 07:46:54;;;;;;;24.25;19.40;;;10.70;99.90;;;;;;5058842;28;20051;-68
2023/04/01 07:49:30;;;;;;;27.13;19.52;;;10.70;99.90;;;;;;5045537;28;20171;-70
2023/04/01 07:52:17;;;;;;;23.85;18.02;;;10.70;99.90;;;;;;5063301;28;20063;-71
2023/04/01 07:54:58;;;;;;;22.98;18.15;;;10.80;99.90;;;;;;5063017;28;20028;-69
2023/04/01 07:57:52;;;;;;;23.42;18.63;;;10.80;99.90;;;;;;5055238;28;20080;-68
2023/04/01 08:00:30;;;;;;;22.42;18.50;;;10.80;99.90;;;;;;5055152;28;20056;-67
2023/04/01 08:03:14;;;;;;;23.42;18.58;;;10.80;99.90;;;;;;5030651;28;20546;-69
2023/04/01 08:05:46;;;;;;;22.63;18.50;;;10.80;99.90;;;;;;5055220;28;20037;-70
2023/04/01 08:08:40;;;;;;;20.15;17.95;;;10.80;99.90;;;;;;5054289;28;20064;-69
2023/04/01 08:11:38;;;;;;;16.95;15.15;;;10.80;99.90;;;;;;5063351;28;20071;-68
2023/04/01 08:14:27;;;;;;;15.82;14.23;;;10.80;99.90;;;;;;5046812;28;20040;-70
2023/04/01 08:17:34;;;;;;;16.85;15.15;;;10.80;99.90;;;;;;5062458;28;20048;-69
2023/04/01 08:20:20;;;;;;;15.25;13.65;;;10.80;99.90;;;;;;5046153;28;20049;-69
2023/04/01 08:22:52;;;;;;;15.87;13.60;;;10.80;99.90;;;;;;5060228;28;20127;-69
2023/04/01 08:25:27;;;;;;;15.38;13.75;;;10.80;99.90;;;;;;5063458;28;20694;-68
2023/04/01 08:28:24;;;;;;;16.15;13.10;;;10.80;99.90;;;;;;5034458;28;20044;-70
2023/04/01 08:31:10;;;;;;;15.60;11.68;;;10.90;99.90;;;;;;5053517;28;20103;-69
2023/04/01 08:33:37;;;;;;;12.23;11.02;;;10.90;99.90;;;;;;5069117;28;20044;-68
2023/04/01 08:36:18;;;;;;;13.20;11.27;;;10.80;99.90;;;;;;5064238;28;20047;-69
2023/04/01 08:39:04;;;;;;;9.40;8.40;;;10.90;99.90;;;;;;5071230;28;20075;-67
2023/04/01 08:41:32;;;;;;;9.02;7.72;;;10.90;99.90;;;;;;5063583;28;20044;-70
2023/04/01 08:44:15;;;;;;;9.45;7.60;;;10.90;99.90;;;;;;5043317;28;20063;-68
2023/04/01 08:47:13;;;;;;;5.97;5.38;;;10.90;99.90;;;;;;5066216;28;20075;-70
2023/04/01 08:50:00;;;;;;;6.93;5.72;;;10.90;99.90;;;;;;5057982;28;20127;-70
2023/04/01 08:52:33;;;;;;;7.07;5.65;;;10.90;99.90;;;;;;5037841;28;20037;-69
2023/04/01 08:55:13;;;;;;;6.57;5.43;;;10.90;99.90;;;;;;5063217;28;20554;-68
2023/04/01 08:57:54;;;;;;;6.20;5.30;;;10.90;99.90;;;;;;5059781;28;20056;-68
2023/04/01 09:00:31;;;;;;;6.75;5.25;;;10.90;99.90;;;;;;5039829;28;20519;-69
2023/04/01 09:03:14;;;;;;;5.85;4.60;;;11.00;99.90;;;;;;5051062;28;20059;-70
2023/04/01 09:06:17;;;;;;;6.28;4.32;;;11.10;99.90;;;;;;5044618;28;20536;-70
2023/04/01 09:09:10;;;;;;;4.90;4.13;;;11.10;99.90;;;;;;5035730;28;20056;-70
2023/04/01 09:12:23;;;;;;;5.55;3.90;;;11.10;99.90;;;;;;5044651;28;20079;-71
2023/04/01 09:15:07;;;;;;;4.03;3.20;;;11.20;99.90;;;;;;5034946;28;20103;-69
2023/04/01 09:17:53;;;;;;;4.18;3.55;;;11.20;99.90;;;;;;5033412;28;20045;-68
2023/04/01 09:20:30;;;;;;;5.22;3.80;;;11.20;99.90;;;;;;5038297;28;20050;-70
2023/04/01 09:23:14;;;;;;;7.20;3.70;;;11.20;99.90;;;;;;5045040;28;20052;-70
2023/04/01 09:25:50;;;;;;;5.72;3.60;;;11.20;99.90;;;;;;5032914;28;20049;-69
2023/04/01 09:28:33;;;;;;;4.93;3.70;;;11.20;99.90;;;;;;5032920;28;20064;-70
2023/04/01 09:31:17;;;;;;;4.55;3.72;;;11.20;99.90;;;;;;5031585;28;20042;-70
2023/04/01 09:34:23;;;;;;;5.25;3.95;;;11.20;99.90;;;;;;5043580;28;20048;-69
2023/04/01 09:37:21;;;;;;;4.13;3.67;;;11.30;99.90;;;;;;5033723;28;20493;-69
2023/04/01 09:40:21;;;;;;;4.32;3.90;;;11.30;99.90;;;;;;5049225;28;20389;-68
2023/04/01 09:43:01;;;;;;;6.15;4.95;;;11.30;99.90;;;;;;5041507;28;20044;-68
2023/04/01 09:45:35;;;;;;;6.18;5.25;;;11.30;99.90;;;;;;5049090;28;20439;-68
2023/04/01 09:48:25;;;;;;;7.13;5.18;;;11.30;99.90;;;;;;5042344;28;21090;-69
2023/04/01 09:51:29;;;;;;;6.28;5.47;;;11.30;99.90;;;;;;5036655;28;20052;-69
2023/04/01 09:54:19;;;;;;;6.53;5.40;;;11.30;99.90;;;;;;5041317;28;20551;-67
2023/04/01 09:57:05;;;;;;;6.78;6.07;;;11.30;99.90;;;;;;5046104;28;20072;-69
2023/04/01 09:59:56;;;;;;;8.02;6.50;;;11.20;99.90;;;;;;5047636;28;20133;-70
2023/04/01 10:02:56;;;;;;;7.70;6.82;;;11.20;99.90;;;;;;5048796;28;20044;-70
2023/04/01 10:05:47;;;;;;;7.95;6.82;;;11.20;99.90;;;;;;4991900;28;20092;-69
2023/04/01 10:08:26;;;;;;;8.00;7.20;;;11.30;99.90;;;;;;5035623;28;20048;-69
2023/04/01 10:10:59;;;;;;;8.18;7.38;;;11.30;99.90;;;;;;5044359;28;20072;-67
2023/04/01 10:14:06;;;;;;;8.85;7.95;;;11.30;99.90;;;;;;5041173;28;20439;-67
2023/04/01 10:16:56;;;;;;;8.43;6.88;;;11.30;99.90;;;;;;5023613;28;20065;-67
2023/04/01 10:19:59;;;;;;;7.65;6.95;;;11.30;99.90;;;;;;5041650;28;20049;-68
2023/04/01 10:22:36;;;;;;;7.97;7.18;;;11.30;99.90;;;;;;5039352;28;20052;-67
2023/04/01 10:25:14;;;;;;;8.00;6.57;;;11.40;99.90;;;;;;5044729;28;20441;-67
2023/04/01 10:28:04;;;;;;;7.47;6.70;;;11.40;99.90;;;;;;5044652;28;20049;-67
2023/04/01 10:30:48;;;;;;;9.57;6.32;;;11.40;99.90;;;;;;5048095;28;20111;-67
2023/04/01 10:33:41;;;;;;;7.78;6.43;;;11.50;99.90;;;;;;5049706;28;20045;-67
2023/04/01 10:36:44;;;;;;;6.55;5.90;;;11.50;99.90;;;;;;5052587;28;20048;-67
2023/04/01 10:39:31;;;;;;;6.63;5.93;;;11.60;99.90;;;;;;5042752;28;20069;-67
2023/04/01 10:42:06;;;;;;;;;;;11.70;99.90;;;;;;5048313;28;20040;-67
2023/04/01 10:44:58;;;;;;;7.43;6.70;;;11.70;99.90;;;;;;5043006;28;19979;-67
2023/04/01 10:47:46;;;;;;;8.88;6.50;;;11.80;99.90;;;;;;5042999;28;20084;-70
2023/04/01 10:50:11;;;;;;;6.43;5.82;;;11.80;99.90;;;;;;5043658;28;20053;-68
2023/04/01 10:52:55;;;;;;;7.53;6.07;;;11.80;99.90;;;;;;5044431;28;21550;-69
2023/04/01 10:55:58;;;;;;;6.30;5.63;;;11.90;99.90;;;;;;5041151;28;20882;-67
2023/04/01 10:59:05;;;;;;;6.70;6.00;;;11.90;99.90;;;;;;5052134;28;20037;-68
2023/04/01 11:01:36;;;;;;;6.40;5.20;;;11.90;99.90;;;;;;5007519;28;20199;-67
2023/04/01 11:04:26;;;;;;;7.13;6.18;;;11.90;99.90;;;;;;5042339;28;20453;-67
2023/04/01 11:07:29;;;;;;;6.53;5.93;;;11.90;99.90;;;;;;5036567;28;20049;-67
2023/04/01 11:10:45;;;;;;;7.55;5.95;;;11.90;99.90;;;;;;5039308;28;20065;-68
2023/04/01 11:13:38;;;;;;;6.18;5.57;;;12.00;99.90;;;;;;5047396;28;20099;-68
2023/04/01 11:16:30;;;;;;;6.38;5.38;;;11.90;99.90;;;;;;5037700;28;20053;-69
2023/04/01 11:19:17;;;;;;;7.10;5.93;;;11.90;99.90;;;;;;5038531;28;20045;-67
2023/04/01 11:22:04;;;;;;;6.53;5.78;;;11.90;99.90;;;;;;5044661;28;20060;-69
2023/04/01 11:24:49;;;;;;;;;;;12.00;99.90;;;;;;5042336;28;20045;-68
2023/04/01 11:27:53;;;;;;;7.82;5.47;;;11.90;99.90;;;;;;5044446;28;20308;-68
2023/04/01 11:30:41;;;;;;;5.57;5.07;;;11.90;99.90;;;;;;5044461;28;20045;-70
2023/04/01 11:33:28;;;;;;;5.72;5.22;;;11.90;99.90;;;;;;5035507;28;20698;-70
2023/04/01 11:36:26;;;;;;;5.60;5.10;;;12.00;99.90;;;;;;5045799;28;20052;-70
2023/04/01 11:39:21;;;;;;;5.40;4.90;;;12.00;99.90;;;;;;5043661;28;20087;-69
2023/04/01 11:42:05;;;;;;;7.43;5.45;;;12.00;99.90;;;;;;5041907;28;20041;-69
2023/04/01 11:44:35;;;;;;;7.25;5.55;;;12.00;99.90;;;;;;5037216;28;20049;-70
2023/04/01 11:47:21;;;;;;;5.63;5.03;;;12.10;99.90;;;;;;5035329;28;20052;-70
2023/04/01 11:50:34;;;;;;;6.28;5.68;;;12.10;99.90;;;;;;5036975;28;20115;-69
2023/04/01 11:53:17;;;;;;;6.80;5.70;;;12.20;99.90;;;;;;4993688;28;20056;-70
2023/04/01 11:56:27;;;;;;;5.00;4.50;;;12.20;99.90;;;;;;5044028;28;20053;-69
2023/04/01 11:59:05;;;;;;;5.10;4.60;;;12.30;99.90;;;;;;5041386;28;20056;-69
2023/04/01 12:01:49;;;;;;;5.85;5.25;;;12.30;99.90;;;;;;5056192;28;20057;-69
2023/04/01 12:04:17;;;;;;;6.45;5.30;;;12.30;99.90;;;;;;5061637;28;20082;-70
2023/04/01 12:06:56;;;;;;;5.13;4.72;;;12.30;99.90;;;;;;5052380;28;20792;-69
2023/04/01 12:09:40;;;;;;;5.22;4.40;;;12.30;99.90;;;;;;5061634;28;20044;-68
2023/04/01 12:12:34;;;;;;;6.93;5.80;;;12.40;99.90;;;;;;5056957;28;20052;-69
2023/04/01 12:15:38;;;;;;;6.15;5.40;;;12.30;99.90;;;;;;5056996;28;20047;-70
2023/04/01 12:18:17;;;;;;;6.25;5.68;;;12.20;99.90;;;;;;5062225;28;20065;-68
2023/04/01 12:20:59;;;;;;;5.85;5.35;;;12.00;99.90;;;;;;5036927;28;20041;-69
2023/04/01 12:23:56;;;;;;;5.28;4.78;;;12.00;99.90;;;;;;5066634;28;20503;-70
2023/04/01 12:27:10;;;;;;;5.50;5.03;;;11.90;99.90;;;;;;5061312;28;20495;-68
2023/04/01 12:30:13;;;;;;;4.90;4.50;;;11.80;99.90;;;;;;5045728;28;20040;-70
2023/04/01 12:33:04;;;;;;;5.60;5.07;;;11.70;99.90;;;;;;5066109;28;20068;-70
2023/04/01 12:35:48;;;;;;;4.88;4.18;;;11.60;99.90;;;;;;5058009;28;20045;-68
2023/04/01 12:38:23;;;;;;;6.97;4.85;;;11.60;99.90;;;;;;5061051;28;20052;-69
2023/04/01 12:40:56;;;;;;;5.35;4.85;;;11.60;99.90;;;;;;5040589;28;20040;-69
2023/04/01 12:43:31;;;;;;;5.22;4.75;;;11.50;99.90;;;;;;5040609;28;20056;-68
2023/04/01 12:46:25;;;;;;;5.20;4.80;;;11.40;99.90;;;;;;5060400;28;20063;-70
2023/04/01 12:49:15;;;;;;;5.13;4.70;;;11.30;99.90;;;;;;5066402;28;20151;-68
2023/04/01 12:52:14;;;;;;;6.13;5.53;;;11.20;99.90;;;;;;5067238;28;20063;-68
2023/04/01 12:55:08;;;;;;;6.32;5.07;;;11.20;99.90;;;;;;5058848;28;20043;-68
2023/04/01 12:58:08;;;;;;;5.65;5.15;;;11.20;99.90;;;;;;5040274;28;20083;-69
2023/04/01 13:00:48;;;;;;;5.00;4.60;;;11.10;99.90;;;;;;5068647;28;20614;-70
2023/04/01 13:03:52;;;;;;;4.75;4.35;;;11.10;99.90;;;;;;5065888;28;20079;-69
2023/04/01 13:06:23;;;;;;;5.13;4.72;;;11.00;99.90;;;;;;5067089;28;20361;-69
2023/04/01 13:09:06;;;;;;;5.43;4.93;;;11.00;99.90;;;;;;5065775;28;20452;-69
2023/04/01 13:12:09;;;;;;;5.60;5.10;;;10.90;99.90;;;;;;5058104;28;20045;-70
2023/04/01 13:15:00;;;;;;;5.65;5.15;;;10.90;99.90;;;;;;5047185;28;20511;-69
2023/04/01 13:17:32;;;;;;;6.03;5.53;;;10.80;99.90;;;;;;5063178;28;20045;-69
2023/04/01 13:20:06;;;;;;;6.07;5.57;;;10.80;99.90;;;;;;5068102;28;20093;-70
2023/04/01 13:23:05;;;;;;;6.35;5.82;;;10.80;99.90;;;;;;5065671;28;20480;-68
2023/04/01 13:25:48;;;;;;;5.85;5.35;;;10.80;99.90;;;;;;5061433;28;20049;-69
2023/04/01 13:28:20;;;;;;;6.05;5.53;;;10.80;99.90;;;;;;5056873;28;20115;-68
2023/04/01 13:31:27;;;;;;;5.07;4.68;;;10.70;99.90;;;;;;5038910;28;20044;-68
2023/04/01 13:34:14;;;;;;;4.68;4.28;;;10.80;99.90;;;;;;4957928;28;20074;-72